Time;durP1;ratioP1;P1;durP2;ratioP2;P2;SDS_P1;SDS_P2;PMS_P1;PMS_P2;Temp;Humidity;BMP_temperature;BMP_pressure;BME280_temperature;BME280_humidity;BME280_pressure;Samples;Min_cycle;Max_cycle;Signal;HPM_P1;HPM_P2
2024/03/26 00:01:41;;;;;;;6.30;3.60;;;;;;;10.45;43.25;95645.56;5031891;28;20282;-71
2024/03/26 00:04:06;;;;;;;3.30;3.00;;;;;;;10.38;43.69;95649.94;5033097;28;20263;-70
2024/03/26 00:06:32;;;;;;;7.23;3.47;;;;;;;10.54;43.01;95647.03;5014902;28;20176;-70
2024/03/26 00:08:57;;;;;;;6.40;3.60;;;;;;;10.57;42.52;95646.66;5032371;28;20283;-71
2024/03/26 00:11:24;;;;;;;5.47;3.17;;;;;;;10.55;42.87;95645.22;5033050;28;20203;-73
2024/03/26 00:13:49;;;;;;;4.03;3.07;;;;;;;10.54;43.36;95647.03;5032527;28;20202;-72
2024/03/26 00:16:15;;;;;;;4.23;2.90;;;;;;;10.57;43.07;95644.03;5032706;28;20426;-71
2024/03/26 00:18:40;;;;;;;7.63;2.90;;;;;;;10.40;43.28;95640.88;5013010;28;20263;-72
2024/03/26 00:21:06;;;;;;;5.53;3.30;;;;;;;10.50;43.09;95645.78;5032541;28;20227;-72
2024/03/26 00:23:31;;;;;;;6.60;3.53;;;;;;;10.56;43.20;95652.06;5033672;28;20188;-71
2024/03/26 00:25:56;;;;;;;12.27;3.13;;;;;;;10.47;43.00;95642.75;5031336;28;20183;-71
2024/03/26 00:28:22;;;;;;;3.70;2.93;;;;;;;10.42;43.21;95645.94;5030759;28;20209;-71
2024/03/26 00:30:47;;;;;;;2.90;2.70;;;;;;;10.38;43.56;95642.06;5035086;28;20203;-71
2024/03/26 00:33:13;;;;;;;3.23;2.63;;;;;;;10.42;43.56;95638.09;5029021;28;20210;-71
2024/03/26 00:35:38;;;;;;;3.10;2.80;;;;;;;10.25;43.55;95643.53;5032071;28;20226;-71
2024/03/26 00:38:04;;;;;;;5.00;3.00;;;;;;;10.35;43.75;95634.56;5040804;28;20247;-71
2024/03/26 00:40:29;;;;;;;5.00;3.47;;;;;;;10.43;43.61;95626.59;5033492;28;20219;-71
2024/03/26 00:42:55;;;;;;;5.73;2.90;;;;;;;10.49;43.19;95623.22;5033483;28;20180;-71
2024/03/26 00:45:20;;;;;;;4.27;2.90;;;;;;;10.49;43.18;95615.34;5029463;28;20730;-71
2024/03/26 00:47:46;;;;;;;5.50;2.73;;;;;;;10.45;43.38;95611.53;5027702;28;20274;-70
2024/03/26 00:50:13;;;;;;;3.80;2.90;;;;;;;10.40;43.54;95611.28;5030987;28;20286;-72
2024/03/26 00:52:38;;;;;;;4.93;3.17;;;;;;;10.26;44.23;95605.09;5030030;28;20191;-71
2024/03/26 00:55:04;;;;;;;4.70;3.07;;;;;;;10.28;44.40;95603.06;5041593;28;20517;-71
2024/03/26 00:57:29;;;;;;;6.63;3.10;;;;;;;10.23;44.42;95590.56;5036225;28;20308;-71
2024/03/26 00:59:55;;;;;;;4.33;2.97;;;;;;;10.20;44.18;95588.34;5031988;28;20195;-70
2024/03/26 01:02:20;;;;;;;5.87;3.23;;;;;;;10.17;44.03;95580.84;5029959;28;20237;-70
2024/03/26 01:04:45;;;;;;;5.43;3.00;;;;;;;9.98;45.00;95572.63;5029829;28;20294;-72
2024/03/26 01:07:11;;;;;;;5.57;3.37;;;;;;;10.01;45.17;95574.09;5053420;28;20208;-71
2024/03/26 01:09:36;;;;;;;5.83;3.07;;;;;;;9.98;44.77;95566.63;4988130;28;20241;-70
2024/03/26 01:12:02;;;;;;;7.90;3.20;;;;;;;9.94;44.81;95574.03;5020640;28;20195;-72
2024/03/26 01:14:27;;;;;;;7.87;3.40;;;;;;;10.04;44.71;95575.50;5033977;28;20187;-73
2024/03/26 01:16:53;;;;;;;9.27;3.20;;;;;;;10.06;44.31;95578.75;5020930;28;20220;-71
2024/03/26 01:19:19;;;;;;;6.73;3.73;;;;;;;10.06;44.07;95578.75;5027445;28;20239;-68
2024/03/26 01:21:44;;;;;;;7.10;3.17;;;;;;;10.01;43.16;95578.50;5026453;28;20227;-70
2024/03/26 01:24:10;;;;;;;4.03;3.00;;;;;;;10.06;43.61;95589.22;5028489;28;20220;-72
2024/03/26 01:26:35;;;;;;;6.70;3.47;;;;;;;10.10;43.42;95587.81;5031910;28;20183;-71
2024/03/26 01:29:01;;;;;;;6.13;3.23;;;;;;;9.99;43.67;95579.50;5023792;28;20206;-72
2024/03/26 01:31:26;;;;;;;5.03;3.10;;;;;;;9.99;44.26;95583.94;5032180;28;20294;-71
2024/03/26 01:33:51;;;;;;;8.37;3.87;;;;;;;9.98;44.38;95583.09;5025501;28;20183;-71
2024/03/26 01:36:17;;;;;;;4.47;3.10;;;;;;;9.96;44.44;95577.25;5030932;28;21592;-73
2024/03/26 01:38:42;;;;;;;4.47;3.40;;;;;;;9.86;44.41;95579.38;5027057;28;20274;-71
2024/03/26 01:41:08;;;;;;;5.13;3.67;;;;;;;9.89;44.72;95568.53;5024144;28;20229;-71
2024/03/26 01:43:34;;;;;;;3.60;3.07;;;;;;;9.95;44.75;95572.22;5031903;28;20183;-73
2024/03/26 01:45:59;;;;;;;5.23;3.30;;;;;;;9.88;44.77;95568.75;5026466;28;20782;-73
2024/03/26 01:48:25;;;;;;;4.20;3.10;;;;;;;9.68;45.02;95562.31;5039794;28;20407;-73
2024/03/26 01:50:50;;;;;;;4.97;3.70;;;;;;;9.40;45.96;95561.44;5030937;28;20246;-72
2024/03/26 01:53:16;;;;;;;3.83;2.93;;;;;;;9.44;45.82;95560.06;5042041;28;20198;-72
2024/03/26 01:55:41;;;;;;;9.27;3.87;;;;;;;9.47;45.62;95555.28;5036432;28;20207;-72
2024/03/26 01:58:07;;;;;;;6.43;3.17;;;;;;;9.59;45.23;95549.56;5025364;28;20219;-72
2024/03/26 02:00:33;;;;;;;5.60;3.60;;;;;;;9.58;45.04;95556.56;5039630;28;20619;-71
2024/03/26 02:02:58;;;;;;;6.13;3.67;;;;;;;9.59;45.28;95547.72;5035096;28;20187;-71
2024/03/26 02:05:24;;;;;;;6.27;3.43;;;;;;;9.56;45.32;95547.31;5035643;28;20207;-71
2024/03/26 02:07:49;;;;;;;9.03;3.70;;;;;;;9.49;45.64;95542.00;5033553;28;20259;-69
2024/03/26 02:10:15;;;;;;;5.93;3.13;;;;;;;9.42;45.96;95541.13;5031655;28;20212;-73
2024/03/26 02:12:40;;;;;;;4.13;2.90;;;;;;;9.45;45.33;95531.13;5037982;28;20179;-72
2024/03/26 02:15:07;;;;;;;5.10;3.33;;;;;;;9.43;45.33;95532.31;5034683;28;20692;-72
2024/03/26 02:17:32;;;;;;;4.00;3.30;;;;;;;9.46;45.99;95530.13;5033612;28;20200;-71
2024/03/26 02:19:59;;;;;;;4.30;3.20;;;;;;;9.48;45.36;95530.75;5033938;28;20453;-71
2024/03/26 02:22:24;;;;;;;5.37;3.27;;;;;;;9.35;45.47;95523.56;5034173;28;20215;-72
2024/03/26 02:24:50;;;;;;;5.93;2.90;;;;;;;9.25;46.10;95520.44;5042447;28;20832;-70
2024/03/26 02:27:15;;;;;;;10.17;3.23;;;;;;;9.29;45.75;95523.50;5032807;28;20640;-72
2024/03/26 02:29:40;;;;;;;5.50;3.80;;;;;;;9.31;46.52;95524.13;5039187;28;20310;-70
2024/03/26 02:32:06;;;;;;;4.40;2.97;;;;;;;9.34;46.24;95513.31;5024474;28;20283;-71
2024/03/26 02:34:31;;;;;;;8.90;3.90;;;;;;;9.20;46.68;95501.88;5032852;28;20179;-73
2024/03/26 02:36:57;;;;;;;3.50;3.10;;;;;;;9.24;45.88;95513.59;5033357;28;20204;-71
2024/03/26 02:39:22;;;;;;;5.80;3.40;;;;;;;9.14;46.61;95521.72;5041772;28;20208;-71
2024/03/26 02:41:49;;;;;;;6.00;3.33;;;;;;;9.17;46.73;95507.50;5034717;28;20245;-71
2024/03/26 02:44:14;;;;;;;6.60;3.40;;;;;;;9.26;46.57;95511.63;5041495;28;20179;-73
2024/03/26 02:46:39;;;;;;;7.40;3.20;;;;;;;9.31;46.27;95519.72;5041738;28;20477;-71
2024/03/26 02:49:05;;;;;;;6.80;3.27;;;;;;;9.34;46.44;95508.88;5034830;28;20259;-70
2024/03/26 02:51:30;;;;;;;4.80;3.50;;;;;;;9.32;46.16;95512.69;5040094;28;20931;-71
2024/03/26 02:53:56;;;;;;;3.80;3.00;;;;;;;9.25;46.43;95504.75;5047799;28;20788;-70
2024/03/26 02:56:21;;;;;;;6.77;3.63;;;;;;;9.27;46.31;95508.00;5045600;28;20211;-72
2024/03/26 02:58:47;;;;;;;4.90;3.27;;;;;;;9.25;46.76;95499.53;5041460;28;20238;-71
2024/03/26 03:01:13;;;;;;;12.57;3.37;;;;;;;9.21;46.89;95493.06;5042897;28;20286;-71
2024/03/26 03:03:39;;;;;;;6.17;3.43;;;;;;;9.23;46.51;95491.06;5033566;28;20210;-71
2024/03/26 03:06:08;;;;;;;6.80;3.90;;;;;;;9.09;47.24;95492.75;5039920;28;20446;-72
2024/03/26 03:08:33;;;;;;;6.60;3.90;;;;;;;9.10;47.09;95502.22;5040866;28;20659;-71
2024/03/26 03:10:59;;;;;;;6.10;3.00;;;;;;;9.11;47.22;95508.22;5038758;28;20442;-71
2024/03/26 03:13:24;;;;;;;4.70;3.60;;;;;;;9.18;47.29;95502.09;5018117;28;20187;-71
2024/03/26 03:15:50;;;;;;;5.10;3.83;;;;;;;9.25;46.73;95494.31;5039848;28;20246;-71
2024/03/26 03:18:15;;;;;;;7.40;3.07;;;;;;;9.26;46.84;95489.91;5035841;28;20242;-71
2024/03/26 03:20:41;;;;;;;9.17;3.70;;;;;;;9.27;46.66;95487.09;5051057;28;20290;-71
2024/03/26 03:23:06;;;;;;;4.30;3.20;;;;;;;9.32;46.75;95484.75;5046914;28;20179;-70
2024/03/26 03:25:32;;;;;;;4.60;3.67;;;;;;;9.26;46.92;95480.25;5033023;28;20651;-71
2024/03/26 03:27:58;;;;;;;11.33;3.70;;;;;;;9.21;46.99;95478.19;5036865;28;20255;-70
2024/03/26 03:30:23;;;;;;;6.43;4.00;;;;;;;9.24;47.22;95481.44;5041669;28;20818;-70
2024/03/26 03:32:49;;;;;;;6.20;3.40;;;;;;;9.27;47.42;95478.44;5040444;28;20271;-70
2024/03/26 03:35:14;;;;;;;9.23;3.77;;;;;;;9.26;46.83;95475.03;5037940;28;20178;-71
2024/03/26 03:37:39;;;;;;;5.17;3.60;;;;;;;9.20;47.14;95473.97;5037155;28;20203;-72
2024/03/26 03:40:06;;;;;;;5.93;3.30;;;;;;;8.93;47.06;95479.91;5036230;28;20630;-73
2024/03/26 03:42:31;;;;;;;5.30;3.67;;;;;;;9.03;47.81;95470.78;5036049;28;20199;-70
2024/03/26 03:44:57;;;;;;;10.17;4.20;;;;;;;9.06;47.92;95472.19;5031101;28;20455;-71
2024/03/26 03:47:22;;;;;;;6.13;3.50;;;;;;;9.08;47.45;95467.59;5041721;28;20190;-69
2024/03/26 03:49:48;;;;;;;5.93;3.20;;;;;;;9.16;47.54;95458.84;5035723;28;20168;-69
2024/03/26 03:52:13;;;;;;;6.80;3.70;;;;;;;9.16;47.58;95464.06;5038089;28;20271;-71
2024/03/26 03:54:39;;;;;;;9.27;3.47;;;;;;;9.13;47.65;95453.97;5037931;28;20179;-71
2024/03/26 03:57:04;;;;;;;5.00;3.57;;;;;;;9.06;48.22;95459.97;5037663;28;20218;-72
2024/03/26 03:59:30;;;;;;;4.07;3.50;;;;;;;9.09;47.75;95450.09;5032864;28;20179;-71
2024/03/26 04:01:55;;;;;;;5.97;3.63;;;;;;;9.06;48.07;95457.34;5026646;28;20231;-71
2024/03/26 04:04:21;;;;;;;6.70;4.13;;;;;;;9.14;48.03;95455.59;5029664;28;20188;-71
2024/03/26 04:06:46;;;;;;;5.60;3.83;;;;;;;9.21;48.32;95449.44;5034616;28;20255;-71
2024/03/26 04:09:12;;;;;;;6.80;3.70;;;;;;;9.30;47.73;95449.31;5028910;28;20203;-72
2024/03/26 04:11:37;;;;;;;5.70;3.40;;;;;;;9.32;47.30;95450.75;5030750;28;20278;-72
2024/03/26 04:14:02;;;;;;;6.83;3.60;;;;;;;9.37;47.11;95445.75;5031474;28;20238;-71
2024/03/26 04:16:28;;;;;;;3.50;3.20;;;;;;;9.36;47.62;95433.69;5031542;28;20276;-72
2024/03/26 04:18:53;;;;;;;5.23;3.37;;;;;;;9.30;47.52;95444.91;5033393;28;20176;-71
2024/03/26 04:21:19;;;;;;;7.50;3.87;;;;;;;9.29;47.32;95452.91;5029707;28;20203;-72
2024/03/26 04:23:46;;;;;;;9.83;3.83;;;;;;;9.23;47.90;95441.41;5033533;28;20278;-71
2024/03/26 04:26:12;;;;;;;6.83;3.67;;;;;;;9.24;48.02;95439.63;5031908;28;20199;-70
2024/03/26 04:28:37;;;;;;;9.63;4.90;;;;;;;9.17;47.99;95437.75;5037511;28;20442;-72
2024/03/26 04:31:03;;;;;;;8.33;4.70;;;;;;;9.14;48.15;95439.91;5045379;28;20249;-71
2024/03/26 04:33:29;;;;;;;5.33;3.50;;;;;;;9.21;48.40;95441.59;5018843;28;20207;-71
2024/03/26 04:35:54;;;;;;;7.57;4.80;;;;;;;9.28;46.94;95441.66;5030662;28;20171;-72
2024/03/26 04:38:19;;;;;;;9.70;4.27;;;;;;;9.28;47.01;95444.28;5030846;28;20291;-72
2024/03/26 04:40:45;;;;;;;9.93;6.10;;;;;;;9.29;47.35;95440.66;5030024;28;20198;-70
2024/03/26 04:43:11;;;;;;;7.10;5.20;;;;;;;9.34;46.96;95433.06;5036078;28;20182;-71
2024/03/26 04:45:37;;;;;;;7.30;4.50;;;;;;;9.29;47.13;95429.38;5030428;28;20610;-72
2024/03/26 04:48:02;;;;;;;6.23;4.30;;;;;;;9.14;47.70;95432.88;5029474;28;20200;-71
2024/03/26 04:50:28;;;;;;;5.63;4.43;;;;;;;8.90;48.95;95429.63;5032761;28;20474;-72
2024/03/26 04:52:54;;;;;;;5.57;4.23;;;;;;;9.06;48.51;95438.22;5035173;28;20852;-71
2024/03/26 04:55:19;;;;;;;9.63;4.37;;;;;;;9.16;49.01;95445.78;5051566;28;20248;-72
2024/03/26 04:57:45;;;;;;;9.50;4.97;;;;;;;9.24;48.56;95445.63;5029956;28;20199;-72
2024/03/26 05:00:12;;;;;;;4.90;4.30;;;;;;;9.28;48.17;95452.13;5022750;28;20208;-71
2024/03/26 05:02:42;;;;;;;8.10;4.53;;;;;;;9.28;48.52;95446.91;5031978;28;21588;-71
2024/03/26 05:05:08;;;;;;;7.30;4.80;;;;;;;9.21;48.51;95440.78;5031683;28;20428;-71
2024/03/26 05:07:34;;;;;;;5.10;4.20;;;;;;;9.09;48.67;95442.28;5041160;28;20426;-70
2024/03/26 05:09:59;;;;;;;5.57;4.00;;;;;;;9.14;48.73;95437.31;5023193;28;20541;-70
2024/03/26 05:12:25;;;;;;;6.27;4.30;;;;;;;9.16;48.30;95435.31;5030743;28;20209;-69
2024/03/26 05:14:51;;;;;;;6.17;4.33;;;;;;;9.11;49.08;95433.28;5030305;28;20179;-70
2024/03/26 05:17:16;;;;;;;12.83;4.53;;;;;;;8.84;49.77;95437.41;5036795;28;20906;-72
2024/03/26 05:19:42;;;;;;;7.73;4.00;;;;;;;8.71;49.56;95431.03;5042393;28;20257;-70
2024/03/26 05:22:07;;;;;;;5.00;3.80;;;;;;;8.87;49.69;95426.59;5035004;28;20267;-72
2024/03/26 05:24:34;;;;;;;5.23;3.63;;;;;;;9.04;49.46;95430.59;5048843;28;20188;-71
2024/03/26 05:26:59;;;;;;;7.10;4.50;;;;;;;9.09;49.54;95422.19;5034184;28;20179;-70
2024/03/26 05:29:56;;;;;;;;;;;;;;;;;;;;;
2024/03/26 05:32:30;;;;;;;6.87;4.20;;;;;;;9.30;49.52;95413.53;5033841;28;20202;-72
2024/03/26 05:34:56;;;;;;;7.77;4.63;;;;;;;9.41;48.63;95420.03;5034472;28;20891;-72
2024/03/26 05:37:22;;;;;;;8.13;5.77;;;;;;;9.45;48.89;95416.06;5033598;28;20715;-73
2024/03/26 05:39:47;;;;;;;6.10;4.40;;;;;;;9.50;48.82;95412.88;5033602;28;20241;-72
2024/03/26 05:42:12;;;;;;;7.80;4.33;;;;;;;9.53;49.03;95426.38;5036674;28;20362;-73
2024/03/26 05:44:38;;;;;;;8.00;4.97;;;;;;;9.57;48.62;95419.00;5030370;28;20270;-71
2024/03/26 05:47:04;;;;;;;8.43;4.93;;;;;;;9.60;48.87;95423.81;5038365;28;20843;-71
2024/03/26 05:49:29;;;;;;;6.77;4.20;;;;;;;9.63;48.80;95423.44;5051589;28;20175;-72
2024/03/26 05:51:55;;;;;;;4.83;4.30;;;;;;;9.64;48.96;95416.44;5040223;28;20199;-74
2024/03/26 05:54:20;;;;;;;6.47;4.20;;;;;;;9.69;48.63;95416.66;5041388;28;20190;-72
2024/03/26 05:56:45;;;;;;;6.07;3.90;;;;;;;9.70;48.57;95420.09;5025274;28;20290;-72
2024/03/26 05:59:11;;;;;;;9.60;4.07;;;;;;;9.58;48.59;95412.72;5032419;28;20560;-72
2024/03/26 06:01:37;;;;;;;5.87;4.30;;;;;;;9.52;49.20;95426.59;5033305;28;20207;-71
2024/03/26 06:04:02;;;;;;;7.80;4.77;;;;;;;9.58;49.27;95427.63;5032800;28;20667;-72
2024/03/26 06:06:28;;;;;;;10.43;3.87;;;;;;;9.64;49.40;95414.59;5046753;28;20198;-71
2024/03/26 06:08:53;;;;;;;9.80;4.70;;;;;;;9.71;48.77;95405.97;5036186;28;20184;-72
2024/03/26 06:11:19;;;;;;;9.17;4.13;;;;;;;9.80;48.84;95407.47;5037129;28;20238;-70
2024/03/26 06:13:44;;;;;;;5.83;4.10;;;;;;;9.75;47.60;95412.47;5034845;28;20192;-73
2024/03/26 06:16:11;;;;;;;4.40;3.97;;;;;;;9.88;46.92;95399.47;5037246;28;20197;-72
2024/03/26 06:18:37;;;;;;;6.50;3.90;;;;;;;9.98;46.98;95397.31;5031909;28;20204;-71
2024/03/26 06:21:04;;;;;;;6.27;4.40;;;;;;;10.01;47.52;95384.84;5033481;28;20506;-70
2024/03/26 06:23:30;;;;;;;8.80;4.00;;;;;;;9.96;46.44;95383.59;5031069;28;20430;-71
2024/03/26 06:25:55;;;;;;;6.33;4.20;;;;;;;9.91;47.08;95369.47;5033982;28;20438;-71
2024/03/26 06:28:21;;;;;;;5.93;4.87;;;;;;;9.92;47.57;95378.94;5040844;28;20207;-71
2024/03/26 06:30:46;;;;;;;8.27;5.30;;;;;;;10.08;48.40;95372.63;5027963;28;20241;-72
2024/03/26 06:33:12;;;;;;;5.07;4.17;;;;;;;10.25;48.24;95384.34;5024770;28;20675;-70
2024/03/26 06:35:38;;;;;;;8.00;4.37;;;;;;;10.42;46.19;95381.44;5031022;28;20183;-72
2024/03/26 06:38:05;;;;;;;6.30;3.87;;;;;;;10.62;48.50;95384.13;5034430;28;20480;-71
2024/03/26 06:40:31;;;;;;;5.43;4.37;;;;;;;10.67;45.80;95378.28;5032160;28;20688;-70
2024/03/26 06:42:57;;;;;;;12.73;4.83;;;;;;;10.67;46.32;95370.44;4999408;28;21103;-71
2024/03/26 06:45:22;;;;;;;6.47;4.77;;;;;;;10.84;46.53;95376.13;5015702;28;20425;-70
2024/03/26 06:47:47;;;;;;;9.00;4.13;;;;;;;10.93;46.53;95389.84;5035341;28;20164;-70
2024/03/26 06:50:13;;;;;;;7.13;4.47;;;;;;;11.19;48.20;95384.66;5027351;28;20691;-68
2024/03/26 06:52:38;;;;;;;5.93;3.83;;;;;;;11.62;46.45;95374.75;5034733;28;20239;-72
2024/03/26 06:55:04;;;;;;;6.53;4.00;;;;;;;11.41;42.80;95371.34;5019751;28;20187;-73
2024/03/26 06:57:31;;;;;;;7.90;4.27;;;;;;;11.36;42.38;95373.75;5023536;28;20660;-72
2024/03/26 06:59:58;;;;;;;5.37;4.13;;;;;;;11.04;43.31;95376.16;5037870;28;20476;-72
2024/03/26 07:02:24;;;;;;;5.60;4.90;;;;;;;10.97;43.23;95370.06;5030159;28;20445;-71
2024/03/26 07:04:49;;;;;;;8.13;5.40;;;;;;;10.90;43.84;95359.59;5030806;28;20422;-73
2024/03/26 07:07:15;;;;;;;6.57;4.43;;;;;;;10.81;43.84;95350.31;5025492;28;20247;-72
2024/03/26 07:09:40;;;;;;;7.23;4.77;;;;;;;10.67;44.10;95345.03;5034769;28;20189;-72
2024/03/26 07:12:07;;;;;;;7.23;4.17;;;;;;;10.79;44.74;95332.19;5024912;28;20200;-71
2024/03/26 07:14:33;;;;;;;9.03;5.13;;;;;;;10.94;44.30;95333.81;5030042;28;20191;-74
2024/03/26 07:16:59;;;;;;;5.33;4.20;;;;;;;10.87;44.38;95329.34;5026558;28;20516;-72
2024/03/26 07:19:40;;;;;;;;;;;;;;;;;;;;;
2024/03/26 07:22:25;;;;;;;6.90;4.67;;;;;;;10.94;43.92;95334.59;5032764;28;20848;-72
2024/03/26 07:24:51;;;;;;;7.80;4.60;;;;;;;11.05;43.98;95334.00;5021855;28;20555;-72
2024/03/26 07:27:16;;;;;;;13.70;4.87;;;;;;;11.04;44.40;95336.84;5035193;28;20185;-70
2024/03/26 07:29:42;;;;;;;5.23;4.63;;;;;;;11.03;44.58;95340.47;5021905;28;20189;-72
2024/03/26 07:32:08;;;;;;;7.77;5.00;;;;;;;11.08;44.81;95335.44;5026129;28;20223;-70
2024/03/26 07:34:34;;;;;;;8.10;5.10;;;;;;;11.14;45.13;95342.47;5025619;28;20274;-71
2024/03/26 07:37:00;;;;;;;19.67;5.23;;;;;;;11.21;44.88;95345.09;5036838;28;20820;-72
2024/03/26 07:39:25;;;;;;;11.30;4.80;;;;;;;11.25;43.76;95341.09;5022815;28;20426;-72
2024/03/26 07:41:51;;;;;;;10.20;5.00;;;;;;;11.39;43.40;95344.50;5024033;28;20239;-71
2024/03/26 07:44:16;;;;;;;7.73;3.97;;;;;;;11.37;43.76;95338.66;5021554;28;20656;-72
2024/03/26 07:46:45;;;;;;;7.43;4.73;;;;;;;11.45;44.00;95333.22;5030476;28;20661;-71
2024/03/26 07:49:10;;;;;;;4.40;3.80;;;;;;;11.44;43.19;95338.63;5026047;28;20195;-72
2024/03/26 07:51:37;;;;;;;6.43;4.20;;;;;;;11.48;42.92;95340.66;5040138;28;20445;-72
2024/03/26 07:54:03;;;;;;;10.93;4.87;;;;;;;11.41;43.24;95333.78;5026106;28;20672;-71
2024/03/26 07:56:29;;;;;;;5.57;4.03;;;;;;;11.47;43.05;95318.06;5032862;28;20565;-71
2024/03/26 07:58:54;;;;;;;7.00;4.20;;;;;;;11.61;42.75;95320.66;5025523;28;20184;-71
2024/03/26 08:01:20;;;;;;;7.13;4.33;;;;;;;11.71;42.76;95326.31;5022102;28;20274;-72
2024/03/26 08:03:45;;;;;;;5.33;4.03;;;;;;;11.76;42.55;95320.44;5033522;28;20187;-71
2024/03/26 08:06:11;;;;;;;6.27;3.87;;;;;;;11.82;42.25;95323.06;5023710;28;20233;-73
2024/03/26 08:08:36;;;;;;;10.00;4.67;;;;;;;11.77;42.54;95322.84;5024770;28;20188;-71
2024/03/26 08:11:02;;;;;;;6.60;3.57;;;;;;;11.79;42.22;95331.31;5029429;28;20237;-72
2024/03/26 08:13:28;;;;;;;7.07;3.83;;;;;;;11.83;42.40;95331.72;5022321;28;20192;-72
2024/03/26 08:15:53;;;;;;;7.10;4.10;;;;;;;11.76;42.61;95336.97;5026346;28;20202;-72
2024/03/26 08:18:19;;;;;;;5.80;3.87;;;;;;;11.87;42.83;95339.97;5022398;28;20459;-71
2024/03/26 08:20:45;;;;;;;6.20;4.50;;;;;;;11.94;43.26;95330.28;5020754;28;20312;-71
2024/03/26 08:23:10;;;;;;;8.87;4.37;;;;;;;12.05;43.12;95332.28;5031557;28;20426;-73
2024/03/26 08:25:36;;;;;;;6.20;4.30;;;;;;;12.14;42.95;95325.78;5035074;28;20653;-72
2024/03/26 08:28:01;;;;;;;7.17;4.07;;;;;;;12.25;42.67;95329.59;5037966;28;20187;-73
2024/03/26 08:30:27;;;;;;;5.73;3.80;;;;;;;12.39;42.16;95325.06;5034391;28;20214;-73
2024/03/26 08:32:52;;;;;;;21.63;3.80;;;;;;;12.51;42.14;95321.78;5039567;28;20191;-73
2024/03/26 08:35:18;;;;;;;6.70;3.93;;;;;;;12.68;42.27;95317.66;5028980;28;20179;-72
2024/03/26 08:37:43;;;;;;;3.33;2.90;;;;;;;12.82;42.17;95325.47;5031581;28;20664;-73
2024/03/26 08:40:10;;;;;;;3.67;2.40;;;;;;;12.80;39.64;95323.03;5028512;28;20822;-71
2024/03/26 08:42:37;;;;;;;5.53;2.10;;;;;;;12.94;39.54;95315.88;5027887;28;20276;-71
2024/03/26 08:45:05;;;;;;;2.40;2.17;;;;;;;13.15;40.24;95308.63;5039179;28;20603;-72
2024/03/26 08:47:31;;;;;;;6.00;2.57;;;;;;;13.37;39.79;95314.31;5038453;28;20520;-72
2024/03/26 08:49:56;;;;;;;6.90;3.00;;;;;;;13.63;38.67;95294.06;5034105;28;20505;-72
2024/03/26 08:52:22;;;;;;;4.73;2.53;;;;;;;13.90;39.18;95296.44;5029204;28;20191;-73
2024/03/26 08:54:47;;;;;;;4.57;2.70;;;;;;;14.08;39.01;95299.03;5031843;28;20774;-71
2024/03/26 08:57:15;;;;;;;8.50;2.70;;;;;;;14.36;38.48;95289.78;5030839;28;20231;-72
2024/03/26 08:59:42;;;;;;;6.63;2.97;;;;;;;14.57;37.79;95300.84;5027881;28;20184;-72
2024/03/26 09:02:08;;;;;;;3.27;2.57;;;;;;;14.63;37.36;95293.88;5016633;28;20444;-71
2024/03/26 09:04:35;;;;;;;10.63;2.90;;;;;;;14.94;36.87;95284.91;5038156;28;20430;-72
2024/03/26 09:07:01;;;;;;;6.77;2.33;;;;;;;15.33;35.84;95295.06;5031907;28;20233;-73
2024/03/26 09:09:27;;;;;;;4.20;2.50;;;;;;;15.73;34.95;95281.19;5033872;28;20427;-72
2024/03/26 09:11:53;;;;;;;4.03;2.30;;;;;;;16.00;34.02;95283.34;5027719;28;20214;-74
2024/03/26 09:14:18;;;;;;;5.43;2.20;;;;;;;16.39;33.32;95269.53;5028148;28;20466;-73
2024/03/26 09:16:44;;;;;;;4.83;2.50;;;;;;;16.50;32.21;95275.81;5019544;28;20196;-72
2024/03/26 09:19:11;;;;;;;3.07;2.40;;;;;;;16.91;33.21;95265.94;5040692;28;20203;-74
2024/03/26 09:21:36;;;;;;;6.03;2.33;;;;;;;17.42;32.48;95270.44;5026037;28;20469;-72
2024/03/26 09:24:03;;;;;;;11.13;2.43;;;;;;;17.76;31.72;95267.75;5028841;28;20179;-73
2024/03/26 09:26:29;;;;;;;4.00;2.27;;;;;;;18.06;30.55;95263.88;5029378;28;20282;-74
2024/03/26 09:28:55;;;;;;;4.20;2.37;;;;;;;18.27;30.31;95256.97;5029432;28;21027;-72
2024/03/26 09:31:20;;;;;;;2.80;1.90;;;;;;;18.27;30.01;95257.75;5025465;28;20940;-74
2024/03/26 09:33:45;;;;;;;2.80;2.00;;;;;;;18.47;29.81;95258.22;5029003;28;20238;-72
2024/03/26 09:36:11;;;;;;;6.73;2.30;;;;;;;18.48;29.50;95254.50;5025532;28;20219;-72
2024/03/26 09:38:36;;;;;;;3.93;2.30;;;;;;;18.42;29.45;95249.19;5016718;28;20677;-73
2024/03/26 09:41:02;;;;;;;4.40;2.10;;;;;;;18.66;29.60;95246.22;5025165;28;20252;-74
2024/03/26 09:43:28;;;;;;;4.30;2.43;;;;;;;19.03;29.38;95249.97;5022838;28;20219;-73
2024/03/26 09:45:56;;;;;;;2.43;2.23;;;;;;;19.18;28.32;95254.63;5028339;28;20838;-72
2024/03/26 09:48:21;;;;;;;2.23;2.03;;;;;;;19.48;28.87;95250.56;5028744;28;20193;-71
2024/03/26 09:50:47;;;;;;;2.50;2.10;;;;;;;19.78;29.42;95233.97;5036120;28;20938;-70
2024/03/26 09:53:16;;;;;;;6.40;3.00;;;;;;;19.82;27.71;95228.16;5018936;28;20567;-73
2024/03/26 09:55:41;;;;;;;4.60;1.73;;;;;;;19.98;27.62;95216.56;5019773;28;20426;-73
2024/03/26 09:58:07;;;;;;;4.27;2.43;;;;;;;20.21;27.23;95217.16;5021748;28;22574;-73
2024/03/26 10:00:33;;;;;;;3.50;2.10;;;;;;;20.34;26.98;95208.69;5034414;28;20235;-73
2024/03/26 10:03:00;;;;;;;3.47;1.80;;;;;;;20.64;26.66;95211.63;5027089;28;20638;-71
2024/03/26 10:05:28;;;;;;;4.10;1.90;;;;;;;20.66;25.16;95204.19;5017782;28;20453;-70
2024/03/26 10:07:54;;;;;;;2.33;1.93;;;;;;;20.74;25.54;95200.22;5029155;28;20896;-72
2024/03/26 10:10:21;;;;;;;5.07;2.67;;;;;;;21.01;26.12;95190.13;5027758;28;20442;-72
2024/03/26 10:12:46;;;;;;;4.90;3.10;;;;;;;20.98;26.06;95198.63;4995050;28;20621;-72
2024/03/26 10:15:12;;;;;;;4.13;2.60;;;;;;;20.92;26.29;95183.72;5031453;28;20453;-73
2024/03/26 10:17:37;;;;;;;2.50;1.63;;;;;;;20.95;25.94;95187.72;5034831;28;20685;-74
2024/03/26 10:20:08;;;;;;;3.77;2.07;;;;;;;20.98;24.39;95182.66;5030459;28;20538;-73
2024/03/26 10:22:34;;;;;;;2.90;2.10;;;;;;;21.19;25.34;95182.63;5031432;28;20656;-72
2024/03/26 10:24:59;;;;;;;2.50;2.00;;;;;;;21.25;24.55;95176.25;5024558;28;20427;-74
2024/03/26 10:27:25;;;;;;;1.63;1.53;;;;;;;21.41;25.25;95173.53;5019122;28;20605;-72
2024/03/26 10:29:52;;;;;;;3.77;1.90;;;;;;;21.53;24.66;95176.69;5025273;28;20180;-72
2024/03/26 10:32:21;;;;;;;8.80;2.10;;;;;;;21.86;24.73;95163.78;5015549;28;20227;-72
2024/03/26 10:34:47;;;;;;;4.30;2.13;;;;;;;22.21;24.46;95163.88;5028603;28;20438;-73
2024/03/26 10:37:14;;;;;;;6.63;1.90;;;;;;;22.45;23.13;95161.34;5018283;28;20458;-72
2024/03/26 10:39:44;;;;;;;4.93;2.63;;;;;;;22.61;23.81;95161.22;5025061;28;20433;-72
2024/03/26 10:42:10;;;;;;;8.13;2.77;;;;;;;22.54;24.39;95154.34;5019494;28;20456;-73
2024/03/26 10:44:36;;;;;;;5.20;2.83;;;;;;;22.55;24.12;95153.28;5023504;28;20418;-72
2024/03/26 10:47:02;;;;;;;5.13;2.40;;;;;;;22.68;24.39;95148.38;5025981;28;20427;-73
2024/03/26 10:49:29;;;;;;;8.07;2.83;;;;;;;22.67;24.10;95141.44;5021653;28;20189;-73
2024/03/26 10:51:56;;;;;;;4.80;3.07;;;;;;;22.59;24.23;95139.34;5034857;28;20494;-72
2024/03/26 10:54:22;;;;;;;4.40;3.07;;;;;;;22.46;24.51;95133.59;5019621;28;20833;-72
2024/03/26 10:56:48;;;;;;;11.37;3.40;;;;;;;22.51;25.54;95136.22;5027091;28;20434;-73
2024/03/26 10:59:13;;;;;;;5.90;3.20;;;;;;;22.62;25.15;95131.56;5027649;28;20314;-73
2024/03/26 11:01:39;;;;;;;11.30;3.63;;;;;;;22.76;24.63;95141.63;5024462;28;20211;-73
2024/03/26 11:04:05;;;;;;;13.07;3.47;;;;;;;22.90;24.83;95131.09;5021839;28;20840;-73
2024/03/26 11:06:30;;;;;;;7.97;3.73;;;;;;;22.83;24.76;95126.09;5009058;28;20488;-71
2024/03/26 11:08:58;;;;;;;5.50;3.70;;;;;;;22.91;24.83;95122.78;5029776;28;20258;-72
2024/03/26 11:11:23;;;;;;;5.07;3.13;;;;;;;22.89;25.04;95121.50;5019240;28;20207;-72
2024/03/26 11:13:56;;;;;;;4.83;3.27;;;;;;;22.97;24.72;95121.69;5023721;28;20426;-73
2024/03/26 11:16:35;;;;;;;7.07;3.50;;;;;;;23.17;24.42;95115.34;5014589;28;20668;-72
2024/03/26 11:19:19;;;;;;;5.30;2.60;;;;;;;23.39;24.36;95110.56;5030937;28;20822;-72
2024/03/26 11:21:47;;;;;;;11.80;3.10;;;;;;;23.54;24.30;95102.38;5020093;28;20434;-73
2024/03/26 11:24:32;;;;;;;9.03;2.97;;;;;;;23.71;23.75;95101.09;5046187;28;20426;-72
2024/03/26 11:26:59;;;;;;;11.83;3.10;;;;;;;23.90;25.24;95101.91;5031687;28;20430;-72
2024/03/26 11:29:25;;;;;;;4.90;2.90;;;;;;;24.05;23.16;95092.91;5030166;28;20443;-73
2024/03/26 11:31:51;;;;;;;6.37;2.77;;;;;;;24.19;23.27;95089.50;5013155;28;20451;-71
2024/03/26 11:34:20;;;;;;;6.67;3.40;;;;;;;24.19;23.48;95079.59;5026663;28;20435;-73